EA1JW-3
43.31.35N 005.28.83W
IN73GM aprs.fi
zuletzt gehoert:
2022-08-08T21:30:27Z
zuerst gehoert:
2022-06-14T05:00:23Z

APRS IN73GM, 2 Stunde(n), EA1JW-3 [21:33:08, 0s].
EA1HWD 43.28.96N 005.26.30WIN73GL 5.110km 145°SE19:31:08ZMMDVM MMDVM HS Hat 434.2500/434.2500 CC1
EA1FHR 43.28.72N 005.26.41WIN73GL 5.393km 149°SSE19:30:34ZMMDVM MMDVM HS Hat 439.1500/439.1500 CC1
EB1GEM 43.30.00N 005.36.07WIN73EM 10.416km 258°WSW19:25:38ZWX3in1Plus2.0 U=13.3V,T=??.?C/??.?F(3EB1GEM-3)
EA1DZR 43.31.47N 005.40.00WIN73DM 15.475km 272°W19:32:08ZMMDVM DV ADER 434.3500/434.3500 CC1(3EA1DZR-4)
MMDVM DVMega 431.1000/431.1000 CC1(2EA1DZR-1)
MMDVM MMDVM HS Hat 432.1000/432.1000 CC2(2EA1DZR-2)
EA1IEJ 43.31.83N 005.40.22WIN73DM 15.804km 274°W19:32:14ZMMDVM MMDVM HS Hat 438.8500/438.8500 CC6(3EA1IEJ-1)
MMDVM DMO 222.3400/222.3400 CC1(2EA1IEJ-11)
EA1FFA 43.31.53N 005.40.64WIN73DM 16.325km 272°W19:31:44ZMMDVM MMDVM HS Hat 438.8000/438.8000 CC1(3EA1FFA-1)
EA1JBU 43.30.80N 005.16.20WIN73IM 16.529km 93°E19:30:05ZEA1JBU(3EA1JBU-2)
ED1ZAS 43.27.52N 005.40.17WIN73DL 17.121km 247°WSW19:32:25ZRD985 438.2250/430.6250 CC1
ED1ZAE 43.27.99N 005.40.54WIN73DL 17.265km 250°WSW19:28:30ZWIDE3-3 ESAS3-3 IN73DL WWW.EA1URG.ORG(3ED1ZAE-3)
LEEL 43.32.98N 005.41.71WIN73DN 18.062km 281°W19:30:03ZHelipuerto de El Musel: LEAS 131830Z 31004KT 250V360 9999 FEW010 SCT050 19/16 Q1013 NOSIG=
EB1TK 43.32.22N 005.42.32WIN73DM 18.665km 276°W19:30:16ZWind 225°/004kn, Böen bis 008kn, Temp 18.33c, Regen 0.0mm, letzte 24h 1.8mm, seit 0h 1.8mm, Baro 1016.0h, Hum: 89%(3EB1TK-13)
EC1AIJ 43.19.77N 005.33.49WIN73FH 22.237km 198°SSW19:30:33ZMMDVM MMDVM HS Hat 432.9800/432.9800 CC1
EA1IPU 43.26.21N 005.46.62WIN73CK 26.062km 249°WSW19:31:06ZMMDVM MMDVM HS Hat 439.8000/439.8000 CC1(3EA1IPU-1)
EA1ABW 43.24.77N 005.47.77WIN73CJ 28.537km 245°WSW19:30:38ZMMDVM MMDVM HS Hat 439.8250/439.8250 CC1(3EA1ABW-2)
MMDVM MMDVM HS Hat 439.8250/439.8250 CC1(2EA1ABW-1)
EA1AQK 43.16.49N 005.35.99WIN73EG 29.068km 200°SSW19:30:30ZMMDVM MMDVM HS Hat 439.8500/439.8500 CC1(3EA1AQK-1)
LEMR 43.25.83N 005.49.60WIN73CK 30.087km 251°WSW19:30:03ZAerodromo de la Morgal (123.500MHz): LEAS 131830Z 31004KT 250V360 9999 FEW010 SCT050 19/16 Q1013 NOSIG=
LEGM 43.26.15N 005.49.84WIN73CK 30.183km 252°WSW19:30:03ZHelipuerto de La Morgal (123.500MHz): LEAS 131830Z 31004KT 250V360 9999 FEW010 SCT050 19/16 Q1013 NOSIG=
LEHU 43.22.63N 005.49.57WIN73CJ 32.512km 241°WSW19:30:03ZHelipuerto del HUCA: LEAS 131830Z 31004KT 250V360 9999 FEW010 SCT050 19/16 Q1013 NOSIG=
EA1AHA 43.32.72N 005.54.38WIN73BN 34.883km 275°W19:32:05ZWind 180°/003kn, Böen bis 004kn, Temp 19.44c, Regen 0.0mm, letzte 24h 1.0mm, seit 0h 1.0mm, Baro 1014.8h, Hum: 78%(3EA1AHA-13)
EA1JAY 43.21.54N 005.51.34WIN73BI 35.586km 240°WSW19:30:05ZEA1JAY(3EA1JAY-2)
434.525MHz Nodo TETRA DMO(2EA1JAY-4)
EB1JAJ 43.21.72N 005.51.82WIN73BI 35.969km 241°WSW19:32:07ZMMDVM MMDVM HS Dual Hat 438.0250/431.0250 CC1(3EB1JAJ-2)
ED1ZAU 43.23.04N 005.52.75WIN73BJ 35.976km 245°WSW19:32:23ZRD625 438.5000/430.9000 CC1
EA1L 43.20.38N 005.51.13WIN73BI 36.473km 237°WSW19:18:48ZWind 050°/002kn, Böen bis 005kn, Temp 18.89c, Regen 0.0mm, letzte 24h 0.0mm, seit 0h 0.0mm, Baro 1011.4h, Hum: 92%(3EA1L-13)
ea1l@ure.es V=13.4V(2EA1L)
EA1HJA 43.21.47N 005.52.09WIN73BI 36.516km 241°WSW19:31:23Z IN73FL WX3IN1+ 2.0 - V=13.2V,TX TEMP=36.5C(3EA1HJA-2)
IN73FL WX3IN1+ 2.0 - V=14.0V,TX TEMP=47.1C(2EA1HJA)
ED1ZBF 43.19.16N 005.06.74WIN73KH 36.803km 127°SE19:32:23ZRD625 438.4750/430.8750 CC1
EA1HWX 43.19.28N 005.50.98WIN73BH 37.472km 234°SW19:32:05ZDMO - UHF 439.7250/431.0000 CC11(3EA1HWX-2)
MMDVM DMO 222.3400/222.3400 CC1(2EA1HWX-10)
ED1ZAY 43.29.47N 005.56.54WIN73AL 37.837km 265°W19:32:22ZRD625 438.3000/430.7000 CC1
EA1IMW 43.14.36N 005.46.93WIN73CF 39.888km 219°SW19:32:01ZGRUPO RADIO GALENA (GRG) 430.4500/430.4500 CC1(3EA1IMW-1)
EB1DGC 43.12.60N 005.45.59WIN73CF 41.471km 214°SW19:30:21ZMMDVM MMDVM HS Hat 433.4500/433.4500 CC1
EA1JBL 43.12.28N 005.47.42WIN73CE 43.353km 216°SW19:31:53ZMMDVM DVMega 435.3000/435.3000 CC1
EA1HWA 43.12.00N 005.47.40WIN73CE 43.766km 216°SW19:30:32ZMMDVM MMDVM HS Hat 433.4500/433.4500 CC1
ED1ZAD 43.07.90N 005.38.52WIN73ED 45.242km 197°SSW19:31:38ZED1ZAD-3 APRS Digi/Igate(3ED1ZAD-3)
EA1RCG 43.09.45N 005.49.78WIN73CD 49.473km 216°SW19:31:01ZGRUPO RADIO GALENA (GRG) 430.4500/430.4500 CC1(3EA1RCG-3)

aprs.pl 5.0.011w DL3EL © 2006-2021 [4355799]